Time;durP1;ratioP1;P1;durP2;ratioP2;P2;SDS_P1;SDS_P2;PMS_P1;PMS_P2;Temp;Humidity;BMP_temperature;BMP_pressure;BME280_temperature;BME280_humidity;BME280_pressure;Samples;Min_cycle;Max_cycle;Signal;HPM_P1;HPM_P2
2023/04/21 00:01:12;;;;;;;2.30;1.48;;;8.50;99.90;;;;;;6194681;23;20016;-87
2023/04/21 00:03:59;;;;;;;2.08;1.10;;;7.80;99.90;;;;;;6193994;23;20020;-87
2023/04/21 00:06:52;;;;;;;3.67;1.88;;;8.50;99.90;;;;;;6195565;23;20016;-87
2023/04/21 00:09:36;;;;;;;2.70;1.08;;;8.50;99.90;;;;;;6145879;23;20016;-87
2023/04/21 00:12:11;;;;;;;1.85;1.08;;;8.50;99.90;;;;;;6219458;23;20436;-86
2023/04/21 00:14:42;;;;;;;4.03;1.48;;;8.50;99.90;;;;;;6193987;23;20027;-88
2023/04/21 00:17:23;;;;;;;;;;;;;;;;;;;;;
2023/04/21 00:20:03;;;;;;;5.35;1.65;;;8.50;99.90;;;;;;6196695;23;20065;-86
2023/04/21 00:22:41;;;;;;;1.17;1.00;;;8.90;99.90;;;;;;6218918;23;20012;-87
2023/04/21 00:28:58;;;;;;;2.28;1.33;;;7.60;99.90;;;;;;6197274;23;20016;-86
2023/04/21 00:31:33;;;;;;;1.85;1.15;;;8.40;99.90;;;;;;6218387;23;20107;-86
2023/04/21 00:34:22;;;;;;;3.28;1.17;;;8.40;99.90;;;;;;6193842;23;20054;-87
2023/04/21 00:37:28;;;;;;;;;;;;;;;;;;;;;
2023/04/21 00:40:14;;;;;;;2.55;0.85;;;8.40;99.90;;;;;;6218842;23;20126;-87
2023/04/21 00:42:50;;;;;;;3.45;1.45;;;7.70;99.90;;;;;;6245364;23;20038;-86
2023/04/21 00:45:20;;;;;;;0.97;0.87;;;8.20;99.90;;;;;;6218738;23;20508;-87
2023/04/21 00:48:02;;;;;;;1.13;1.02;;;8.30;99.90;;;;;;6167443;23;20070;-87
2023/04/21 00:53:25;;;;;;;1.85;1.40;;;8.20;99.90;;;;;;6201727;23;20471;-87
2023/04/21 00:55:56;;;;;;;1.67;1.58;;;8.20;99.90;;;;;;6195159;23;20016;-87
2023/04/21 00:58:47;;;;;;;2.15;1.23;;;8.20;99.90;;;;;;6168793;23;20121;-87
2023/04/21 01:01:36;;;;;;;2.03;1.75;;;8.20;99.90;;;;;;6194180;23;20039;-86
2023/04/21 01:07:00;;;;;;;1.45;0.88;;;8.10;99.90;;;;;;6218337;23;20095;-88
2023/04/21 01:09:35;;;;;;;1.23;1.00;;;8.10;99.90;;;;;;6193872;23;20016;-87
2023/04/21 01:12:49;;;;;;;1.52;1.40;;;8.00;99.90;;;;;;6169366;23;20027;-87
2023/04/21 01:15:32;;;;;;;;;;;;;;;;;;;;;
2023/04/21 01:18:07;;;;;;;2.35;1.05;;;8.00;99.90;;;;;;6218827;23;20016;-87
2023/04/21 01:21:09;;;;;;;;;;;;;;;;;;;;;
2023/04/21 01:24:04;;;;;;;1.50;1.02;;;8.00;99.90;;;;;;6218087;23;20160;-86
2023/04/21 01:29:39;;;;;;;1.85;0.85;;;8.00;99.90;;;;;;6177067;23;20032;-86
2023/04/21 01:32:25;;;;;;;1.90;1.20;;;7.90;99.90;;;;;;6218526;23;20083;-86
2023/04/21 01:34:57;;;;;;;1.10;0.85;;;7.90;99.90;;;;;;6194987;23;20016;-86
2023/04/21 01:37:33;;;;;;;1.38;1.02;;;7.90;99.90;;;;;;6219073;23;20027;-87
2023/04/21 01:40:04;;;;;;;2.17;1.00;;;8.00;99.90;;;;;;6193355;23;20027;-87
2023/04/21 01:42:41;;;;;;;1.90;1.55;;;8.00;99.90;;;;;;6193542;23;20020;-86
2023/04/21 01:45:13;;;;;;;2.08;1.20;;;7.90;99.90;;;;;;6193386;23;20012;-87
2023/04/21 01:48:14;;;;;;;1.95;0.80;;;7.90;99.90;;;;;;6194173;23;20020;-87
2023/04/21 01:50:51;;;;;;;1.48;0.95;;;7.40;99.90;;;;;;6199189;23;20487;-87
2023/04/21 01:53:22;;;;;;;1.33;0.85;;;7.90;99.90;;;;;;6218736;23;20016;-87
2023/04/21 01:55:50;;;;;;;1.80;1.63;;;7.90;99.90;;;;;;6169052;23;20031;-90
2023/04/21 01:58:21;;;;;;;0.80;0.80;;;7.90;99.90;;;;;;6193512;23;20020;-87
2023/04/21 02:00:52;;;;;;;3.25;1.48;;;7.90;99.90;;;;;;6193745;23;20016;-86
2023/04/21 02:03:26;;;;;;;3.25;1.45;;;7.90;99.90;;;;;;6193199;23;20016;-87
2023/04/21 02:06:01;;;;;;;3.08;1.80;;;7.80;99.90;;;;;;6194758;23;20448;-87
2023/04/21 02:08:32;;;;;;;2.67;1.50;;;7.90;99.90;;;;;;6220390;23;20024;-87
2023/04/21 02:11:03;;;;;;;2.47;2.00;;;7.80;99.90;;;;;;6220336;23;20086;-88
2023/04/21 02:13:45;;;;;;;4.22;0.88;;;7.80;99.90;;;;;;6220898;23;20016;-87
2023/04/21 02:16:29;;;;;;;2.65;1.52;;;7.80;99.90;;;;;;6198470;23;20012;-86
2023/04/21 02:19:13;;;;;;;1.48;0.90;;;8.60;99.90;;;;;;6220344;23;20055;-86
2023/04/21 02:21:50;;;;;;;5.68;1.55;;;6.90;99.90;;;;;;6195194;23;20020;-85
2023/04/21 02:24:16;;;;;;;1.70;1.55;;;7.70;99.90;;;;;;6170066;23;20123;-86
2023/04/21 02:26:45;;;;;;;1.23;1.20;;;7.70;99.90;;;;;;6194720;23;20464;-86
2023/04/21 02:29:36;;;;;;;;;;;;;;;;;;;;;
2023/04/21 02:32:05;;;;;;;0.65;0.60;;;7.60;99.90;;;;;;6219982;23;20012;-86
2023/04/21 02:34:45;;;;;;;2.72;1.13;;;7.70;99.90;;;;;;6195654;23;20020;-86
2023/04/21 02:37:34;;;;;;;;;;;;;;;;;;;;;
2023/04/21 02:40:18;;;;;;;;;;;;;;;;;;;;;
2023/04/21 02:43:01;;;;;;;;;;;;;;;;;;;;;
2023/04/21 02:45:37;;;;;;;;;;;;;;;;;;;;;
2023/04/21 02:48:09;;;;;;;2.45;1.02;;;7.60;99.90;;;;;;6219587;23;20052;-86
2023/04/21 02:50:51;;;;;;;0.95;0.95;;;8.10;99.90;;;;;;6219400;23;20341;-86
2023/04/21 02:53:44;;;;;;;4.00;1.95;;;6.90;99.90;;;;;;6193562;23;20052;-86
2023/04/21 02:56:22;;;;;;;;;;;;;;;;;;;;;
2023/04/21 02:58:58;;;;;;;1.75;0.82;;;7.50;99.90;;;;;;6218781;23;20031;-86
2023/04/21 03:01:34;;;;;;;0.73;0.73;;;7.50;99.90;;;;;;6220251;23;20063;-86
2023/04/21 03:04:05;;;;;;;1.17;0.88;;;7.50;99.90;;;;;;6194997;23;20070;-87
2023/04/21 03:06:34;;;;;;;3.63;1.67;;;6.80;99.90;;;;;;6194954;23;20016;-86
2023/04/21 03:09:21;;;;;;;2.15;1.05;;;7.50;99.90;;;;;;6169061;23;20023;-87
2023/04/21 03:12:05;;;;;;;;;;;;;;;;;;;;;
2023/04/21 03:14:44;;;;;;;1.83;0.70;;;7.50;99.90;;;;;;6219896;23;20016;-86
2023/04/21 03:17:30;;;;;;;1.40;1.00;;;7.50;99.90;;;;;;6194993;23;20020;-86
2023/04/21 03:20:09;;;;;;;;;;;;;;;;;;;;;
2023/04/21 03:22:38;;;;;;;4.22;1.30;;;7.40;99.90;;;;;;6219557;23;20336;-87
2023/04/21 03:25:12;;;;;;;4.32;1.48;;;7.50;99.90;;;;;;6194421;23;20198;-87
2023/04/21 03:27:41;;;;;;;2.58;1.52;;;7.50;99.90;;;;;;6194935;23;20453;-87
2023/04/21 03:32:55;;;;;;;4.38;1.40;;;7.40;99.90;;;;;;6198732;23;20130;-86
2023/04/21 03:35:43;;;;;;;;;;;;;;;;;;;;;
2023/04/21 03:38:29;;;;;;;;;;;;;;;;;;;;;
2023/04/21 03:41:05;;;;;;;0.88;0.82;;;7.30;99.90;;;;;;6220040;23;20016;-87
2023/04/21 03:44:01;;;;;;;2.05;1.15;;;6.40;99.90;;;;;;6168872;23;20055;-86
2023/04/21 03:46:30;;;;;;;1.70;1.60;;;7.30;99.90;;;;;;6197124;23;20027;-87
2023/04/21 03:49:04;;;;;;;2.45;1.95;;;7.40;99.90;;;;;;6169985;23;20022;-86
2023/04/21 03:51:41;;;;;;;1.65;0.93;;;7.30;99.90;;;;;;6190619;23;20020;-87
2023/04/21 03:54:35;;;;;;;2.15;1.10;;;7.10;99.90;;;;;;6189446;23;20024;-87
2023/04/21 04:00:09;;;;;;;1.77;0.95;;;7.30;99.90;;;;;;6214645;23;20092;-86
2023/04/21 04:02:50;;;;;;;;;;;;;;;;;;;;;
2023/04/21 04:05:30;;;;;;;;;;;;;;;;;;;;;
2023/04/21 04:07:57;;;;;;;1.20;0.98;;;7.30;99.90;;;;;;6192093;23;20111;-87
2023/04/21 04:10:45;;;;;;;1.90;1.10;;;7.20;99.90;;;;;;6188846;23;20460;-86
2023/04/21 04:13:14;;;;;;;0.88;0.82;;;7.30;99.90;;;;;;6188874;23;20522;-87
2023/04/21 04:15:45;;;;;;;1.65;1.15;;;7.20;99.90;;;;;;6214162;23;20052;-87
2023/04/21 04:18:29;;;;;;;1.23;1.23;;;7.20;99.90;;;;;;6188871;23;20020;-87
2023/04/21 04:21:26;;;;;;;4.32;1.02;;;6.50;99.90;;;;;;6142573;23;20437;-87
2023/04/21 04:24:04;;;;;;;1.70;1.10;;;7.20;99.90;;;;;;6143757;23;20341;-87
2023/04/21 04:26:45;;;;;;;1.48;0.80;;;7.20;99.90;;;;;;6188733;23;20021;-86
2023/04/21 04:29:18;;;;;;;3.30;1.60;;;7.30;99.90;;;;;;6189375;23;20016;-86
2023/04/21 04:32:09;;;;;;;1.88;1.35;;;7.20;99.90;;;;;;6214385;23;20351;-87
2023/04/21 04:34:44;;;;;;;1.88;1.10;;;7.20;99.90;;;;;;6212121;23;20095;-86
2023/04/21 04:37:45;;;;;;;1.33;1.23;;;6.70;99.90;;;;;;6189344;23;20013;-90
2023/04/21 04:40:22;;;;;;;2.38;1.45;;;7.30;99.90;;;;;;6167065;23;20020;-91
2023/04/21 04:43:13;;;;;;;;;;;;;;;;;;;;;
2023/04/21 04:46:00;;;;;;;;;;;;;;;;;;;;;
2023/04/21 04:48:35;;;;;;;1.73;1.58;;;7.40;99.90;;;;;;6190934;23;20040;-86
2023/04/21 04:51:04;;;;;;;0.70;0.70;;;7.40;99.90;;;;;;6191086;23;20079;-86
2023/04/21 04:53:38;;;;;;;2.15;1.20;;;7.40;99.90;;;;;;6187853;23;20087;-87
2023/04/21 04:56:14;;;;;;;1.83;1.20;;;8.00;99.90;;;;;;6188252;23;20469;-86
2023/04/21 04:58:47;;;;;;;1.33;1.17;;;7.50;99.90;;;;;;6188984;23;20441;-86
2023/04/21 05:01:28;;;;;;;10.65;1.42;;;8.20;99.90;;;;;;6188740;23;20066;-87
2023/04/21 05:04:15;;;;;;;1.90;1.05;;;7.50;99.90;;;;;;6213605;23;20023;-87
2023/04/21 05:07:08;;;;;;;1.50;1.40;;;7.50;99.90;;;;;;6189230;23;20021;-87
2023/04/21 05:09:53;;;;;;;1.48;1.35;;;7.50;99.90;;;;;;6188565;23;20056;-86
2023/04/21 05:12:27;;;;;;;1.52;1.27;;;7.60;99.90;;;;;;6213191;23;20024;-87
2023/04/21 05:15:13;;;;;;;1.00;0.82;;;7.60;99.90;;;;;;6213866;23;20071;-87
2023/04/21 05:18:14;;;;;;;;;;;;;;;;;;;;;
2023/04/21 05:20:44;;;;;;;1.20;1.10;;;7.70;99.90;;;;;;6190158;23;20453;-87
2023/04/21 05:23:27;;;;;;;1.75;0.95;;;7.80;99.90;;;;;;6188913;23;20028;-87
2023/04/21 05:25:59;;;;;;;2.90;1.30;;;8.30;99.90;;;;;;6188384;23;20021;-86
2023/04/21 05:28:44;;;;;;;0.90;0.75;;;8.10;99.90;;;;;;6212822;23;20016;-87
2023/04/21 05:31:20;;;;;;;1.33;0.80;;;8.00;99.90;;;;;;6188662;23;20027;-86
2023/04/21 05:33:49;;;;;;;2.17;1.02;;;8.50;99.90;;;;;;6188931;23;20020;-87
2023/04/21 05:36:29;;;;;;;1.33;1.15;;;8.70;99.90;;;;;;6188421;23;20028;-87
2023/04/21 05:39:11;;;;;;;1.40;1.13;;;8.90;99.90;;;;;;6215185;23;20318;-86
2023/04/21 05:41:43;;;;;;;1.00;0.55;;;9.10;99.90;;;;;;6215485;23;20013;-87
2023/04/21 05:44:18;;;;;;;1.05;0.82;;;9.30;99.90;;;;;;6215104;23;20092;-88
2023/04/21 05:46:49;;;;;;;1.23;0.85;;;9.40;99.90;;;;;;6166112;23;20116;-87
2023/04/21 05:49:48;;;;;;;1.50;0.80;;;9.50;99.90;;;;;;6215649;23;20074;-92
2023/04/21 05:52:13;;;;;;;1.08;0.98;;;9.60;99.90;;;;;;6191846;23;20488;-87
2023/04/21 05:54:42;;;;;;;1.17;0.70;;;9.90;99.90;;;;;;6215239;23;20020;-86
2023/04/21 05:57:08;;;;;;;1.15;1.10;;;9.70;99.90;;;;;;6216255;23;20102;-84
2023/04/21 05:59:33;;;;;;;2.50;1.00;;;9.90;99.90;;;;;;6215943;23;20024;-79
2023/04/21 06:01:59;;;;;;;1.87;1.53;;;10.00;99.90;;;;;;6165559;23;20103;-81
2023/04/21 06:04:25;;;;;;;7.10;1.83;;;10.10;99.90;;;;;;6215015;23;20028;-81
2023/04/21 06:06:51;;;;;;;1.60;1.13;;;10.30;99.90;;;;;;6216711;23;20024;-81
2023/04/21 06:09:16;;;;;;;1.07;1.03;;;10.30;99.90;;;;;;6190305;23;20013;-81
2023/04/21 06:11:42;;;;;;;0.70;0.70;;;10.40;99.90;;;;;;6216682;23;20048;-84
2023/04/21 06:14:08;;;;;;;1.23;0.97;;;10.50;99.90;;;;;;6215713;23;20027;-86
2023/04/21 06:16:33;;;;;;;1.67;1.23;;;10.60;99.90;;;;;;6189766;23;20424;-85
2023/04/21 06:19:00;;;;;;;3.47;1.47;;;10.70;99.90;;;;;;6215213;23;20020;-82
2023/04/21 06:21:25;;;;;;;2.67;1.17;;;10.80;99.90;;;;;;6215473;23;20270;-81
2023/04/21 06:23:51;;;;;;;1.03;0.93;;;10.90;99.90;;;;;;6216736;23;20349;-87
2023/04/21 06:26:17;;;;;;;0.77;0.73;;;11.10;99.90;;;;;;6164302;23;20684;-86
2023/04/21 06:28:42;;;;;;;1.23;0.77;;;11.20;99.90;;;;;;6215469;23;20425;-88
2023/04/21 06:31:13;;;;;;;3.10;1.17;;;11.30;99.90;;;;;;6190270;23;20016;-85
2023/04/21 06:33:40;;;;;;;2.03;1.48;;;11.30;99.90;;;;;;6189631;23;20048;-84
2023/04/21 06:36:06;;;;;;;1.45;1.35;;;11.30;99.90;;;;;;6216812;23;20086;-84
2023/04/21 06:38:32;;;;;;;1.55;1.20;;;11.50;99.90;;;;;;6214882;23;20437;-84
2023/04/21 06:40:57;;;;;;;1.40;0.90;;;11.60;99.90;;;;;;6165134;23;20027;-84
2023/04/21 06:43:23;;;;;;;1.20;1.10;;;11.80;99.90;;;;;;6190253;23;20240;-84
2023/04/21 06:45:49;;;;;;;1.33;0.97;;;11.90;99.90;;;;;;6214125;23;20250;-86
2023/04/21 06:48:15;;;;;;;2.37;1.10;;;12.00;99.90;;;;;;6214371;23;20117;-87
2023/04/21 06:50:43;;;;;;;0.85;0.85;;;12.00;99.90;;;;;;6213447;23;20088;-87
2023/04/21 06:53:10;;;;;;;1.55;1.20;;;12.20;99.90;;;;;;6236378;23;20017;-86
2023/04/21 06:55:36;;;;;;;1.08;0.98;;;12.20;99.90;;;;;;6219495;23;20096;-86
2023/04/21 06:58:02;;;;;;;2.03;1.15;;;12.40;99.90;;;;;;6220029;23;20476;-83
2023/04/21 07:00:27;;;;;;;1.57;1.03;;;12.50;99.90;;;;;;6246614;23;20078;-88
2023/04/21 07:02:53;;;;;;;0.93;0.70;;;12.70;99.90;;;;;;6219433;23;20031;-83
2023/04/21 07:05:19;;;;;;;1.27;1.17;;;12.80;99.90;;;;;;6220010;23;20020;-84
2023/04/21 07:07:44;;;;;;;1.17;1.10;;;12.90;99.90;;;;;;6219536;23;20357;-85
2023/04/21 07:10:10;;;;;;;0.90;0.90;;;12.90;99.90;;;;;;6219753;23;20020;-84
2023/04/21 07:12:36;;;;;;;0.60;0.60;;;12.90;99.90;;;;;;6194656;23;20016;-84
2023/04/21 07:15:02;;;;;;;1.00;1.00;;;12.90;99.90;;;;;;6220023;23;20471;-86
2023/04/21 07:17:27;;;;;;;1.10;1.02;;;12.90;99.90;;;;;;6194818;23;20027;-84
2023/04/21 07:19:53;;;;;;;1.47;1.20;;;12.70;99.90;;;;;;6219051;23;20102;-85
2023/04/21 07:22:19;;;;;;;1.30;1.10;;;12.50;99.90;;;;;;6219481;23;20016;-85
2023/04/21 07:24:44;;;;;;;1.60;0.93;;;12.40;99.90;;;;;;6194467;23;20070;-86
2023/04/21 07:27:10;;;;;;;1.23;0.80;;;12.20;99.90;;;;;;6219732;23;20020;-86
2023/04/21 07:29:36;;;;;;;1.30;1.20;;;12.10;99.90;;;;;;6194716;23;20016;-85
2023/04/21 07:32:02;;;;;;;1.67;1.30;;;12.10;99.90;;;;;;6169842;23;20023;-84
2023/04/21 07:34:27;;;;;;;1.43;1.07;;;12.10;99.90;;;;;;6170216;23;20246;-88
2023/04/21 07:36:55;;;;;;;0.97;0.90;;;12.30;99.90;;;;;;6219643;23;20121;-86
2023/04/21 07:39:21;;;;;;;2.55;2.10;;;12.60;99.90;;;;;;6219477;23;20375;-84
2023/04/21 07:41:47;;;;;;;1.80;1.45;;;13.00;99.90;;;;;;6218313;23;20016;-83
2023/04/21 07:44:12;;;;;;;0.80;0.73;;;13.40;99.90;;;;;;6193232;23;20099;-84
2023/04/21 07:46:41;;;;;;;1.17;1.13;;;13.70;99.90;;;;;;6219224;23;20399;-84
2023/04/21 07:49:07;;;;;;;1.00;0.95;;;14.10;99.90;;;;;;6193893;23;20432;-85
2023/04/21 07:51:33;;;;;;;1.50;1.35;;;14.40;99.90;;;;;;6245988;23;20103;-91
2023/04/21 07:53:58;;;;;;;1.63;1.40;;;14.60;99.90;;;;;;6193708;23;20016;-84
2023/04/21 07:56:24;;;;;;;2.05;1.05;;;14.60;99.90;;;;;;6194488;23;20016;-84
2023/04/21 07:58:50;;;;;;;2.05;0.93;;;14.40;99.90;;;;;;6218921;23;20019;-85
2023/04/21 08:01:16;;;;;;;1.03;0.70;;;14.20;99.90;;;;;;6219258;23;20017;-84
2023/04/21 08:03:42;;;;;;;;;;;14.20;99.90;;;;;;6194683;23;20020;-85
2023/04/21 08:06:08;;;;;;;0.95;0.90;;;14.50;99.90;;;;;;6219395;23;19990;-84
2023/04/21 08:08:33;;;;;;;1.73;1.03;;;14.70;99.90;;;;;;6219286;23;20099;-84
2023/04/21 08:10:59;;;;;;;1.13;1.03;;;14.80;99.90;;;;;;6218798;23;20242;-85
2023/04/21 08:13:25;;;;;;;1.80;0.93;;;14.90;99.90;;;;;;6193816;23;20719;-84
2023/04/21 08:15:51;;;;;;;1.30;0.90;;;15.00;99.90;;;;;;6245542;23;20066;-85
2023/04/21 08:18:17;;;;;;;0.90;0.90;;;15.20;99.90;;;;;;6194037;23;20027;-86
2023/04/21 08:20:46;;;;;;;;;;;15.40;99.90;;;;;;6218392;23;20016;-85
2023/04/21 08:23:13;;;;;;;2.05;1.15;;;15.80;99.90;;;;;;6218445;23;19916;-85
2023/04/21 08:25:39;;;;;;;2.10;1.15;;;15.90;99.90;;;;;;6168652;23;20020;-89
2023/04/21 08:28:05;;;;;;;1.02;1.00;;;16.10;99.90;;;;;;6193818;23;20016;-84
2023/04/21 08:30:31;;;;;;;1.27;0.93;;;16.30;99.90;;;;;;6218726;23;20125;-85
2023/04/21 08:32:56;;;;;;;1.17;1.10;;;16.50;99.90;;;;;;6218042;23;20098;-84
2023/04/21 08:35:22;;;;;;;1.55;0.82;;;16.40;99.90;;;;;;6218957;23;20024;-84
2023/04/21 08:37:48;;;;;;;1.20;0.80;;;16.10;99.90;;;;;;6193337;23;20078;-85
2023/04/21 08:40:14;;;;;;;1.80;1.13;;;16.10;99.90;;;;;;6218820;23;20023;-85
2023/04/21 08:42:40;;;;;;;3.60;1.50;;;16.30;99.90;;;;;;6218540;23;20023;-89
2023/04/21 08:45:06;;;;;;;1.88;1.23;;;16.60;99.90;;;;;;6244771;23;20012;-84
2023/04/21 08:47:32;;;;;;;2.45;0.85;;;16.80;99.90;;;;;;6245397;23;20069;-85
2023/04/21 08:49:58;;;;;;;1.45;0.77;;;17.00;99.90;;;;;;6192781;23;20012;-85
2023/04/21 08:52:27;;;;;;;1.15;1.10;;;17.10;99.90;;;;;;6218425;23;20038;-85
2023/04/21 08:54:54;;;;;;;1.05;0.90;;;17.20;99.90;;;;;;6244918;23;20016;-85
2023/04/21 08:57:20;;;;;;;2.17;1.00;;;16.90;99.90;;;;;;6193045;23;20078;-85
2023/04/21 08:59:45;;;;;;;1.65;0.70;;;16.80;99.90;;;;;;6218287;23;20020;-85
2023/04/21 09:02:17;;;;;;;1.75;1.17;;;16.60;99.90;;;;;;6193380;23;20016;-84
2023/04/21 09:04:50;;;;;;;1.00;0.90;;;16.40;99.90;;;;;;6218302;23;20061;-89
2023/04/21 09:07:32;;;;;;;0.75;0.75;;;16.30;99.90;;;;;;6245491;23;20022;-84
2023/04/21 09:10:01;;;;;;;1.98;1.13;;;16.30;99.90;;;;;;6193132;23;20022;-85
2023/04/21 09:12:28;;;;;;;2.28;0.95;;;16.20;99.90;;;;;;6218223;23;20043;-84
2023/04/21 09:14:54;;;;;;;1.40;1.10;;;16.20;99.90;;;;;;6218181;23;20023;-84
2023/04/21 09:17:26;;;;;;;1.05;0.93;;;16.30;99.90;;;;;;6245811;23;20022;-84
2023/04/21 09:19:51;;;;;;;1.15;0.90;;;16.70;99.90;;;;;;6192817;23;20020;-84
2023/04/21 09:22:17;;;;;;;0.80;0.80;;;17.00;99.90;;;;;;6167624;23;20475;-84
2023/04/21 09:24:45;;;;;;;0.98;0.95;;;17.20;99.90;;;;;;6245443;23;20016;-84
2023/04/21 09:27:11;;;;;;;1.77;1.35;;;17.20;99.90;;;;;;6193097;23;20456;-84
2023/04/21 09:29:37;;;;;;;0.75;0.70;;;17.20;99.90;;;;;;6193577;23;20016;-84
2023/04/21 09:32:03;;;;;;;1.45;1.08;;;17.10;99.90;;;;;;6244898;23;20020;-85
2023/04/21 09:34:29;;;;;;;1.15;1.05;;;17.00;99.90;;;;;;6169049;23;20020;-84
2023/04/21 09:37:00;;;;;;;1.17;0.70;;;16.90;99.90;;;;;;6192938;23;20016;-85
2023/04/21 09:39:31;;;;;;;0.50;0.50;;;16.70;99.90;;;;;;6218703;23;20020;-85
2023/04/21 09:41:57;;;;;;;1.30;1.13;;;16.70;99.90;;;;;;6218327;23;20019;-85
2023/04/21 09:44:26;;;;;;;;;;;16.50;99.90;;;;;;6218707;23;20027;-84
2023/04/21 09:46:58;;;;;;;0.75;0.60;;;16.50;99.90;;;;;;6193144;23;19916;-85
2023/04/21 09:49:28;;;;;;;1.05;0.88;;;16.50;99.90;;;;;;6193510;23;20506;-84
2023/04/21 09:51:54;;;;;;;1.15;1.02;;;16.50;99.90;;;;;;6244348;23;20442;-85
2023/04/21 09:54:25;;;;;;;1.63;1.42;;;16.60;99.90;;;;;;6193640;23;20456;-84
2023/04/21 09:56:55;;;;;;;1.17;0.90;;;16.60;99.90;;;;;;6218249;23;20087;-88
2023/04/21 09:59:28;;;;;;;1.95;1.10;;;16.50;99.90;;;;;;6245305;23;20016;-84
2023/04/21 10:01:56;;;;;;;1.00;0.85;;;16.50;99.90;;;;;;6218072;23;20107;-84
2023/04/21 10:04:24;;;;;;;1.60;1.27;;;16.50;99.90;;;;;;6218344;23;20101;-84
2023/04/21 10:06:51;;;;;;;1.15;1.05;;;16.60;99.90;;;;;;6192743;23;20016;-89
2023/04/21 10:09:20;;;;;;;1.02;0.90;;;16.70;99.90;;;;;;6244998;23;20467;-84
2023/04/21 10:11:46;;;;;;;1.42;1.35;;;16.80;99.90;;;;;;6218387;23;20016;-84
2023/04/21 10:14:15;;;;;;;1.20;1.10;;;17.00;99.90;;;;;;6244786;23;20083;-84
2023/04/21 10:16:42;;;;;;;1.65;1.25;;;17.10;99.90;;;;;;6219384;23;20024;-84
2023/04/21 10:19:27;;;;;;;1.58;0.98;;;17.10;99.90;;;;;;6244805;23;20073;-84
2023/04/21 10:21:58;;;;;;;2.08;1.40;;;17.20;99.90;;;;;;6217346;23;20023;-86
2023/04/21 10:24:28;;;;;;;1.60;1.42;;;17.30;99.90;;;;;;6219185;23;20031;-85
2023/04/21 10:27:03;;;;;;;1.63;0.90;;;17.50;99.90;;;;;;6219725;23;20086;-84
2023/04/21 10:29:33;;;;;;;2.30;1.42;;;17.80;99.90;;;;;;6221735;23;20039;-84
2023/04/21 10:31:59;;;;;;;0.88;0.88;;;18.00;99.90;;;;;;6219823;23;20020;-85
2023/04/21 10:34:25;;;;;;;1.95;1.05;;;18.30;99.90;;;;;;6219821;23;20008;-84
2023/04/21 10:37:10;;;;;;;2.05;1.27;;;18.50;99.90;;;;;;6246928;23;20141;-84
2023/04/21 10:39:51;;;;;;;1.92;1.23;;;18.60;99.90;;;;;;6220205;23;20012;-84
2023/04/21 10:42:27;;;;;;;1.65;1.55;;;18.70;99.90;;;;;;6219339;23;20073;-84
2023/04/21 10:45:01;;;;;;;2.00;1.13;;;18.90;99.90;;;;;;6220056;23;20020;-84
2023/04/21 10:48:11;;;;;;;1.05;0.93;;;19.00;99.90;;;;;;6195317;23;20012;-84
2023/04/21 10:50:37;;;;;;;1.42;1.10;;;19.20;99.90;;;;;;6095011;23;20037;-84
2023/04/21 10:53:08;;;;;;;1.75;1.33;;;19.50;99.90;;;;;;6224270;23;20035;-85
2023/04/21 10:55:34;;;;;;;1.75;1.10;;;19.60;99.90;;;;;;6219502;23;20079;-84
2023/04/21 10:58:05;;;;;;;2.15;0.90;;;19.90;99.90;;;;;;6246271;23;20024;-84
2023/04/21 11:00:31;;;;;;;1.55;1.45;;;19.80;99.90;;;;;;6194888;23;20016;-84
2023/04/21 11:03:00;;;;;;;1.63;1.10;;;20.00;99.90;;;;;;6194127;23;20016;-89
2023/04/21 11:05:28;;;;;;;1.52;1.13;;;20.30;99.90;;;;;;6246586;23;20079;-84
2023/04/21 11:08:02;;;;;;;2.72;1.65;;;20.60;99.90;;;;;;6219840;23;20016;-84
2023/04/21 11:10:27;;;;;;;1.42;1.33;;;20.60;99.90;;;;;;6219438;23;20017;-84
2023/04/21 11:12:56;;;;;;;1.35;0.82;;;20.50;99.90;;;;;;6169836;23;20023;-84
2023/04/21 11:15:22;;;;;;;2.72;1.13;;;20.20;99.90;;;;;;6219361;23;20038;-84
2023/04/21 11:17:50;;;;;;;1.08;0.95;;;20.20;99.90;;;;;;6219593;23;20023;-84
2023/04/21 11:20:16;;;;;;;3.28;1.42;;;20.20;99.90;;;;;;6193925;23;20336;-84
2023/04/21 11:22:42;;;;;;;1.67;1.20;;;20.20;99.90;;;;;;6170098;23;20091;-84
2023/04/21 11:25:17;;;;;;;1.52;1.20;;;20.30;99.90;;;;;;6219292;23;20023;-84
2023/04/21 11:27:55;;;;;;;1.27;0.85;;;20.30;99.90;;;;;;6194742;23;20016;-84
2023/04/21 11:30:34;;;;;;;1.23;1.13;;;20.20;99.90;;;;;;6194395;23;20211;-84
2023/04/21 11:33:00;;;;;;;0.70;0.70;;;19.90;99.90;;;;;;6219837;23;20016;-88
2023/04/21 11:35:26;;;;;;;1.77;0.98;;;19.90;99.90;;;;;;6194001;23;20016;-83
2023/04/21 11:37:53;;;;;;;1.23;1.08;;;20.00;99.90;;;;;;6246446;23;20016;-84
2023/04/21 11:40:20;;;;;;;0.63;0.60;;;20.10;99.90;;;;;;6219137;23;20016;-84
2023/04/21 11:42:47;;;;;;;1.58;1.48;;;20.00;99.90;;;;;;6169685;23;20340;-84
2023/04/21 11:45:17;;;;;;;0.93;0.88;;;20.00;99.90;;;;;;6194141;23;20097;-85
2023/04/21 11:47:43;;;;;;;0.70;0.68;;;20.10;99.90;;;;;;6219642;23;20020;-84
2023/04/21 11:50:09;;;;;;;0.70;0.70;;;20.10;99.90;;;;;;6193588;23;20103;-84
2023/04/21 11:52:40;;;;;;;0.93;0.68;;;20.30;99.90;;;;;;6245410;23;20027;-84
2023/04/21 11:55:14;;;;;;;1.02;0.85;;;20.40;99.90;;;;;;6219203;23;20028;-85
2023/04/21 11:57:41;;;;;;;0.77;0.70;;;20.60;99.90;;;;;;6194563;23;20020;-84
2023/04/21 12:00:14;;;;;;;0.95;0.80;;;20.70;99.90;;;;;;6218994;23;20016;-85
2023/04/21 12:02:40;;;;;;;0.52;0.52;;;20.70;99.90;;;;;;6246692;23;20077;-85
2023/04/21 12:05:10;;;;;;;1.48;1.20;;;20.50;99.90;;;;;;6219183;23;20047;-89
2023/04/21 12:07:41;;;;;;;0.90;0.90;;;20.50;99.90;;;;;;6219059;23;20466;-84
2023/04/21 12:10:17;;;;;;;0.68;0.68;;;20.60;99.90;;;;;;6219037;23;20380;-87
2023/04/21 12:12:44;;;;;;;0.90;0.75;;;20.60;99.90;;;;;;6219625;23;20023;-84
2023/04/21 12:15:12;;;;;;;2.42;1.10;;;20.50;99.90;;;;;;6193867;23;20062;-85
2023/04/21 12:17:39;;;;;;;1.05;0.60;;;20.20;98.90;;;;;;6219329;23;20020;-84
2023/04/21 12:20:06;;;;;;;0.70;0.68;;;20.30;99.60;;;;;;6245800;23;20341;-84
2023/04/21 12:22:32;;;;;;;0.63;0.63;;;20.60;99.30;;;;;;6168941;23;20027;-84
2023/04/21 12:24:57;;;;;;;1.33;0.52;;;20.70;99.70;;;;;;6219263;23;20012;-84
2023/04/21 12:27:23;;;;;;;0.50;0.50;;;20.80;99.30;;;;;;6193854;23;20081;-84
2023/04/21 12:29:49;;;;;;;1.00;0.90;;;21.00;97.10;;;;;;6194218;23;20020;-84
2023/04/21 12:32:15;;;;;;;0.60;0.60;;;21.30;98.20;;;;;;6245681;23;20440;-85
2023/04/21 12:34:40;;;;;;;1.13;0.82;;;21.40;98.60;;;;;;6246083;23;20449;-84
2023/04/21 12:37:06;;;;;;;1.35;0.90;;;21.60;97.40;;;;;;6193737;23;20452;-84
2023/04/21 12:39:32;;;;;;;0.60;0.60;;;21.50;94.20;;;;;;6218868;23;20023;-84
2023/04/21 12:41:59;;;;;;;1.35;0.85;;;21.20;96.00;;;;;;6194349;23;20066;-84
2023/04/21 12:44:24;;;;;;;;;;;20.90;95.50;;;;;;6219192;23;20020;-85
2023/04/21 12:46:51;;;;;;;0.70;0.60;;;20.60;92.60;;;;;;6218916;23;19938;-84
2023/04/21 12:49:17;;;;;;;0.70;0.70;;;20.40;95.50;;;;;;6218622;23;20048;-85
2023/04/21 12:51:43;;;;;;;;;;;20.30;95.00;;;;;;6219322;23;20321;-84
2023/04/21 12:54:12;;;;;;;1.58;1.20;;;20.30;92.70;;;;;;6213134;23;19915;-84
2023/04/21 12:56:39;;;;;;;0.85;0.85;;;20.20;93.10;;;;;;6214159;23;20433;-84
2023/04/21 12:59:05;;;;;;;;;;;20.20;95.50;;;;;;6214556;23;20052;-84
2023/04/21 13:01:31;;;;;;;0.75;0.75;;;20.40;93.80;;;;;;6188509;23;19922;-85
2023/04/21 13:03:57;;;;;;;0.50;0.50;;;20.50;95.80;;;;;;6164635;23;20103;-84
2023/04/21 13:06:23;;;;;;;1.33;0.90;;;20.40;93.10;;;;;;6163940;23;20444;-84
2023/04/21 13:08:49;;;;;;;0.60;0.60;;;20.20;93.20;;;;;;6213566;23;20017;-84
2023/04/21 13:11:15;;;;;;;0.63;0.63;;;20.20;94.50;;;;;;6213838;23;20017;-88
2023/04/21 13:13:40;;;;;;;1.30;0.90;;;20.40;94.20;;;;;;6189309;23;20095;-84
2023/04/21 13:16:06;;;;;;;2.38;0.65;;;20.40;93.40;;;;;;6189319;23;20012;-84
2023/04/21 13:18:33;;;;;;;0.98;0.70;;;20.30;92.50;;;;;;6215139;23;20017;-84
2023/04/21 13:21:00;;;;;;;2.05;0.88;;;20.20;92.10;;;;;;6188550;23;20016;-84
2023/04/21 13:23:26;;;;;;;0.70;0.70;;;20.00;92.40;;;;;;6188619;23;20128;-85
2023/04/21 13:25:51;;;;;;;0.57;0.52;;;19.80;91.00;;;;;;6213734;23;20161;-84
2023/04/21 13:28:18;;;;;;;0.50;0.50;;;19.80;91.10;;;;;;6214867;23;20048;-88
2023/04/21 13:30:44;;;;;;;1.35;0.60;;;19.80;92.50;;;;;;6188416;23;20028;-84
2023/04/21 13:33:10;;;;;;;0.95;0.65;;;19.70;90.80;;;;;;6215621;23;20067;-85
2023/04/21 13:35:37;;;;;;;0.82;0.82;;;19.70;92.50;;;;;;6188571;23;20016;-85
2023/04/21 13:38:03;;;;;;;0.57;0.47;;;19.80;92.90;;;;;;6188954;23;20063;-85
2023/04/21 13:40:29;;;;;;;0.55;0.55;;;19.90;92.20;;;;;;6213721;23;20020;-85
2023/04/21 13:42:54;;;;;;;0.40;0.40;;;20.10;93.00;;;;;;6214414;23;20024;-85
2023/04/21 13:45:20;;;;;;;1.00;0.60;;;20.50;91.00;;;;;;6187911;23;20420;-85
2023/04/21 13:47:46;;;;;;;0.52;0.30;;;21.00;90.90;;;;;;6213804;23;20013;-84
2023/04/21 13:50:11;;;;;;;0.32;0.32;;;21.30;90.10;;;;;;6188947;23;20039;-85
2023/04/21 13:52:40;;;;;;;0.45;0.45;;;21.60;89.90;;;;;;6187170;23;20077;-85
2023/04/21 13:55:06;;;;;;;1.00;0.60;;;21.90;87.00;;;;;;6188544;23;20017;-85
2023/04/21 13:57:31;;;;;;;0.70;0.45;;;21.90;84.90;;;;;;6188373;23;20024;-85